Terminal Aerodrome Forecast
Issued by NWS

Home | Current Version | Previous Version | Graphics & Text | Print | Product List | Glossary On
Versions: 1 2 3 4 5 6 7 8 9 10 11 12 13 14 15 16 17 18 19
000
FTUS43 KMPX 020348 AAB
TAFRWF
TAF AMD
KRWF 020348Z 0204/0224 16004KT P6SM VCSH BKN070
      TEMPO 0204/0207 3SM -TSRA OVC050CB
     FM020700 16007KT 6SM BR BKN070
     FM021400 17010KT P6SM SCT040=

USA.gov is the U.S. government's official web portal to all federal, state and local government web resources and services.